Time;durP1;ratioP1;P1;durP2;ratioP2;P2;SDS_P1;SDS_P2;PMS_P1;PMS_P2;Temp;Humidity;BMP_temperature;BMP_pressure;BME280_temperature;BME280_humidity;BME280_pressure;Samples;Min_cycle;Max_cycle;Signal;HPM_P1;HPM_P2
2022/09/23 00:01:40;;;;;;;1.45;0.60;;;16.90;96.70;;;;;;5099785;27;20058;-84
2022/09/23 00:04:10;;;;;;;1.65;0.60;;;16.90;96.70;;;;;;5126692;27;20065;-84
2022/09/23 00:06:38;;;;;;;1.08;0.50;;;16.60;96.70;;;;;;5116463;27;20113;-84
2022/09/23 00:09:10;;;;;;;2.78;0.68;;;16.30;96.70;;;;;;5105361;28;20074;-84
2022/09/23 00:11:38;;;;;;;1.67;0.60;;;16.70;96.70;;;;;;5103635;27;20043;-84
2022/09/23 00:14:06;;;;;;;1.33;0.52;;;16.90;96.70;;;;;;5108502;27;20051;-84
2022/09/23 00:16:35;;;;;;;2.00;0.73;;;16.90;96.70;;;;;;5126066;27;20050;-84
2022/09/23 00:19:04;;;;;;;1.05;0.55;;;16.70;96.70;;;;;;5101924;27;20047;-85
2022/09/23 00:21:32;;;;;;;1.00;0.60;;;16.60;96.70;;;;;;5100285;28;20039;-84
2022/09/23 00:24:01;;;;;;;2.20;0.75;;;16.40;96.70;;;;;;5105503;28;20050;-84
2022/09/23 00:26:29;;;;;;;1.15;0.55;;;16.50;96.70;;;;;;5107159;28;20244;-84
2022/09/23 00:29:01;;;;;;;0.98;0.55;;;16.40;96.70;;;;;;5107657;28;20051;-84
2022/09/23 00:31:30;;;;;;;2.88;0.70;;;16.50;96.70;;;;;;5102601;28;20043;-84
2022/09/23 00:34:00;;;;;;;1.73;0.60;;;16.30;96.70;;;;;;5083791;28;20069;-84
2022/09/23 00:36:31;;;;;;;0.95;0.60;;;16.30;96.70;;;;;;5108266;28;20059;-85
2022/09/23 00:38:59;;;;;;;2.15;0.60;;;16.50;96.70;;;;;;5104729;28;20051;-85
2022/09/23 00:41:27;;;;;;;2.20;0.60;;;16.60;96.70;;;;;;5074653;28;20044;-85
2022/09/23 00:43:57;;;;;;;1.58;0.75;;;16.50;96.70;;;;;;5102041;28;20102;-85
2022/09/23 00:46:29;;;;;;;2.42;0.70;;;16.20;96.70;;;;;;5096500;28;20086;-84
2022/09/23 00:49:02;;;;;;;0.90;0.60;;;16.10;96.70;;;;;;5093955;28;20130;-85
2022/09/23 00:51:44;;;;;;;2.22;0.60;;;16.20;96.70;;;;;;5111519;28;20051;-84
2022/09/23 00:54:12;;;;;;;0.95;0.40;;;16.20;96.70;;;;;;5107088;28;20394;-84
2022/09/23 00:56:40;;;;;;;1.85;0.40;;;16.20;96.70;;;;;;5111514;28;20055;-84
2022/09/23 00:59:09;;;;;;;1.73;0.60;;;16.10;96.70;;;;;;5111223;28;20463;-84
2022/09/23 01:01:37;;;;;;;5.43;0.95;;;15.80;96.70;;;;;;5111198;28;20061;-84
2022/09/23 01:04:06;;;;;;;1.08;0.60;;;15.80;96.70;;;;;;5086737;28;20044;-84
2022/09/23 01:06:34;;;;;;;0.90;0.50;;;15.70;96.70;;;;;;5110290;28;20050;-85
2022/09/23 01:09:04;;;;;;;1.58;0.60;;;15.80;96.70;;;;;;5111659;28;20050;-83
2022/09/23 01:11:47;;;;;;;2.38;0.70;;;15.60;96.70;;;;;;5111354;28;20088;-84
2022/09/23 01:14:34;;;;;;;0.93;0.52;;;15.70;96.70;;;;;;5110700;28;20104;-84
2022/09/23 01:17:08;;;;;;;1.83;0.70;;;15.90;96.70;;;;;;5110361;28;20686;-84
2022/09/23 01:20:11;;;;;;;1.42;0.70;;;15.90;96.70;;;;;;5112277;28;20039;-83
2022/09/23 01:23:04;;;;;;;2.25;0.85;;;15.90;96.70;;;;;;5096774;28;20568;-84
2022/09/23 01:26:10;;;;;;;1.50;0.70;;;15.80;96.70;;;;;;5109269;28;20499;-84
2022/09/23 01:28:58;;;;;;;1.33;0.60;;;15.80;96.70;;;;;;5138050;27;20143;-83
2022/09/23 01:31:36;;;;;;;1.27;0.60;;;15.70;96.70;;;;;;5105056;28;20560;-83
2022/09/23 01:34:10;;;;;;;1.40;0.60;;;15.60;96.70;;;;;;5123712;27;20043;-83
2022/09/23 01:36:43;;;;;;;1.98;1.02;;;15.60;96.70;;;;;;5103469;28;20039;-83
2022/09/23 01:39:17;;;;;;;1.65;0.60;;;15.60;96.70;;;;;;5080421;28;20156;-82
2022/09/23 01:41:57;;;;;;;1.80;0.68;;;15.70;96.70;;;;;;5110629;28;20089;-83
2022/09/23 01:44:33;;;;;;;2.45;0.77;;;15.50;96.70;;;;;;5110457;28;20075;-83
2022/09/23 01:47:09;;;;;;;1.73;0.57;;;15.20;96.70;;;;;;5088147;28;20055;-83
2022/09/23 01:49:44;;;;;;;4.13;0.63;;;15.00;96.70;;;;;;5110357;28;20385;-83
2022/09/23 01:52:17;;;;;;;0.90;0.60;;;15.00;96.70;;;;;;5103324;28;20048;-83
2022/09/23 01:54:50;;;;;;;1.02;0.52;;;15.20;96.70;;;;;;5111638;28;20691;-82
2022/09/23 01:57:26;;;;;;;2.13;0.63;;;15.20;96.70;;;;;;5110929;27;20101;-83
2022/09/23 02:00:00;;;;;;;2.57;0.70;;;15.20;96.70;;;;;;5092498;28;20074;-83
2022/09/23 02:02:48;;;;;;;0.77;0.40;;;15.30;96.70;;;;;;5109627;28;20046;-83
2022/09/23 02:05:21;;;;;;;1.67;0.70;;;15.30;96.70;;;;;;5109884;28;20152;-82
2022/09/23 02:07:58;;;;;;;1.17;0.75;;;15.20;96.70;;;;;;5092185;28;20120;-83
2022/09/23 02:10:31;;;;;;;1.20;0.68;;;15.00;96.70;;;;;;5104674;28;20093;-83
2022/09/23 02:13:06;;;;;;;1.00;0.70;;;15.00;96.70;;;;;;5109214;28;20146;-83
2022/09/23 02:15:40;;;;;;;0.60;0.47;;;15.10;96.70;;;;;;5109795;28;20133;-82
2022/09/23 02:18:14;;;;;;;1.67;0.70;;;15.10;96.70;;;;;;5111103;28;20043;-83
2022/09/23 02:20:43;;;;;;;1.67;0.55;;;15.10;96.70;;;;;;5109464;28;20036;-83
2022/09/23 02:23:14;;;;;;;1.75;0.60;;;15.00;96.70;;;;;;5110731;28;20035;-83
2022/09/23 02:25:51;;;;;;;1.15;0.55;;;14.90;96.70;;;;;;5109331;28;20549;-83
2022/09/23 02:28:29;;;;;;;2.05;0.63;;;14.80;96.70;;;;;;5109088;28;20047;-82
2022/09/23 02:31:06;;;;;;;2.25;0.70;;;14.70;96.70;;;;;;5108549;28;20048;-83
2022/09/23 02:33:42;;;;;;;2.22;1.08;;;14.80;96.70;;;;;;5108969;28;20043;-83
2022/09/23 02:36:20;;;;;;;1.92;0.63;;;14.70;96.70;;;;;;5108676;28;20071;-84
2022/09/23 02:38:56;;;;;;;1.38;0.73;;;14.80;96.70;;;;;;5092556;28;20501;-83
2022/09/23 02:41:31;;;;;;;0.93;0.60;;;14.80;96.70;;;;;;5108807;28;20035;-82
2022/09/23 02:44:03;;;;;;;0.90;0.55;;;14.80;96.70;;;;;;5105377;28;20054;-83
2022/09/23 02:46:32;;;;;;;1.08;0.50;;;14.80;96.70;;;;;;5108215;28;20497;-83
2022/09/23 02:49:09;;;;;;;1.50;0.70;;;14.70;96.70;;;;;;5103277;28;20070;-83
2022/09/23 02:51:38;;;;;;;2.95;0.90;;;14.60;96.70;;;;;;5106815;28;20043;-83
2022/09/23 02:54:09;;;;;;;0.90;0.50;;;14.60;96.70;;;;;;5109507;28;20115;-83
2022/09/23 02:56:37;;;;;;;0.60;0.40;;;14.50;96.70;;;;;;5102000;28;20496;-83
2022/09/23 02:59:11;;;;;;;0.82;0.50;;;14.50;96.70;;;;;;5108139;28;20503;-78
2022/09/23 03:01:48;;;;;;;0.95;0.57;;;14.40;96.70;;;;;;5131171;27;20696;-84
2022/09/23 03:04:30;;;;;;;0.80;0.40;;;14.40;96.70;;;;;;5104534;28;20044;-83
2022/09/23 03:07:05;;;;;;;1.77;0.60;;;14.50;96.70;;;;;;5083742;28;20096;-83
2022/09/23 03:09:38;;;;;;;1.67;0.50;;;14.40;96.70;;;;;;5104970;28;20101;-83
2022/09/23 03:12:20;;;;;;;1.02;0.50;;;14.40;96.70;;;;;;5107994;28;20143;-83
2022/09/23 03:14:52;;;;;;;1.40;0.80;;;14.40;96.70;;;;;;5104323;28;20382;-83
2022/09/23 03:17:27;;;;;;;2.17;0.50;;;14.40;96.70;;;;;;5091865;28;20050;-83
2022/09/23 03:20:03;;;;;;;1.30;0.70;;;14.30;96.70;;;;;;5109559;28;20477;-83
2022/09/23 03:22:34;;;;;;;1.98;0.70;;;14.30;96.70;;;;;;5084086;28;20060;-83
2022/09/23 03:25:07;;;;;;;2.10;0.73;;;14.20;96.70;;;;;;5101800;28;20517;-83
2022/09/23 03:27:37;;;;;;;7.43;4.70;;;14.20;96.70;;;;;;5109083;28;20043;-82
2022/09/23 03:30:07;;;;;;;19.80;12.32;;;14.20;96.70;;;;;;5108271;28;20489;-83
2022/09/23 03:32:37;;;;;;;11.75;8.20;;;14.10;96.70;;;;;;5107488;28;20052;-82
2022/09/23 03:35:07;;;;;;;9.77;5.78;;;14.10;96.70;;;;;;5095219;28;20036;-82
2022/09/23 03:37:41;;;;;;;4.78;3.47;;;14.00;96.70;;;;;;5100720;28;20408;-83
2022/09/23 03:40:14;;;;;;;4.07;2.50;;;14.00;96.70;;;;;;5109817;28;20040;-83
2022/09/23 03:42:42;;;;;;;3.50;2.10;;;14.00;96.70;;;;;;5087161;28;20418;-83
2022/09/23 03:45:17;;;;;;;4.20;1.27;;;13.90;96.70;;;;;;5097210;28;20558;-83
2022/09/23 03:47:45;;;;;;;6.05;2.00;;;13.80;96.70;;;;;;5107439;28;20552;-83
2022/09/23 03:50:16;;;;;;;3.88;2.03;;;13.80;96.70;;;;;;5108020;28;20086;-81
2022/09/23 03:52:43;;;;;;;3.70;2.70;;;13.80;96.70;;;;;;5109032;28;20043;-82
2022/09/23 03:55:11;;;;;;;2.75;1.73;;;13.80;96.70;;;;;;5087322;28;20047;-83
2022/09/23 03:57:39;;;;;;;2.92;1.30;;;13.80;96.70;;;;;;5099998;28;20505;-82
2022/09/23 04:00:08;;;;;;;3.08;0.88;;;13.90;96.70;;;;;;5106937;28;20043;-82
2022/09/23 04:02:59;;;;;;;3.55;1.48;;;13.80;96.70;;;;;;5108416;28;20043;-83
2022/09/23 04:05:29;;;;;;;17.30;10.55;;;13.60;96.70;;;;;;5058306;28;20044;-82
2022/09/23 04:07:57;;;;;;;35.03;17.92;;;13.60;96.70;;;;;;5082440;28;20076;-83
2022/09/23 04:10:25;;;;;;;59.95;32.72;;;13.60;96.70;;;;;;5075831;28;20422;-82
2022/09/23 04:12:53;;;;;;;56.30;30.60;;;13.60;96.70;;;;;;5046525;28;20048;-83
2022/09/23 04:15:21;;;;;;;49.35;26.77;;;13.80;96.70;;;;;;5055752;28;20054;-83
2022/09/23 04:17:54;;;;;;;34.10;17.40;;;13.70;96.70;;;;;;5068888;28;20044;-83
2022/09/23 04:20:22;;;;;;;28.58;15.90;;;13.70;96.70;;;;;;5054851;28;20043;-82
2022/09/23 04:22:51;;;;;;;21.67;13.05;;;13.70;96.70;;;;;;5056806;28;20056;-83
2022/09/23 04:25:19;;;;;;;25.73;12.38;;;13.60;96.70;;;;;;5074087;28;20731;-82
2022/09/23 04:27:47;;;;;;;18.77;10.45;;;13.60;96.70;;;;;;5034421;28;20117;-82
2022/09/23 04:30:15;;;;;;;17.00;8.93;;;13.50;96.70;;;;;;5089473;28;20598;-83
2022/09/23 04:32:43;;;;;;;12.88;7.05;;;13.50;96.70;;;;;;5090026;28;20047;-83
2022/09/23 04:35:11;;;;;;;12.02;6.22;;;13.50;96.70;;;;;;5107874;28;20118;-83
2022/09/23 04:37:40;;;;;;;11.95;6.07;;;13.50;96.70;;;;;;5106652;28;20402;-83
2022/09/23 04:40:09;;;;;;;10.80;5.22;;;13.60;96.70;;;;;;5072876;28;20064;-83
2022/09/23 04:42:38;;;;;;;7.32;3.83;;;13.60;96.70;;;;;;5089274;28;20047;-84
2022/09/23 04:45:22;;;;;;;4.45;2.85;;;13.50;96.70;;;;;;5105574;28;20031;-81
2022/09/23 04:47:50;;;;;;;5.55;2.42;;;13.50;96.70;;;;;;5098040;28;20051;-78
2022/09/23 04:50:18;;;;;;;5.60;2.50;;;13.40;96.70;;;;;;5102213;28;20521;-77
2022/09/23 04:52:46;;;;;;;3.50;2.10;;;13.40;96.70;;;;;;5102083;28;20040;-78
2022/09/23 04:55:16;;;;;;;5.93;2.20;;;13.50;96.70;;;;;;5101506;28;20043;-77
2022/09/23 04:57:44;;;;;;;4.80;2.25;;;13.40;96.70;;;;;;5104832;28;20730;-78
2022/09/23 05:00:14;;;;;;;5.50;2.92;;;13.50;96.70;;;;;;5104198;28;20408;-78
2022/09/23 05:02:43;;;;;;;8.93;4.63;;;13.50;96.70;;;;;;5102925;28;20039;-78
2022/09/23 05:05:12;;;;;;;6.93;4.00;;;13.60;96.70;;;;;;5085720;28;20202;-79
2022/09/23 05:07:40;;;;;;;6.95;4.82;;;13.60;96.70;;;;;;5102183;28;20491;-78
2022/09/23 05:10:08;;;;;;;7.15;4.70;;;13.50;96.70;;;;;;5102176;28;20550;-77
2022/09/23 05:12:37;;;;;;;6.68;4.43;;;13.50;96.70;;;;;;5104174;28;20148;-78
2022/09/23 05:15:06;;;;;;;7.03;4.30;;;13.50;96.70;;;;;;5101754;28;20051;-78
2022/09/23 05:17:36;;;;;;;8.25;4.47;;;13.40;96.70;;;;;;5103613;28;20070;-78
2022/09/23 05:20:10;;;;;;;8.57;4.05;;;13.30;96.70;;;;;;5100139;28;20067;-79
2022/09/23 05:22:38;;;;;;;6.63;3.35;;;13.30;96.70;;;;;;5102645;28;20071;-79
2022/09/23 05:25:06;;;;;;;5.72;3.55;;;13.30;96.70;;;;;;5101500;28;20527;-79
2022/09/23 05:27:35;;;;;;;5.22;3.40;;;13.30;96.70;;;;;;5085598;28;20603;-79
2022/09/23 05:30:06;;;;;;;4.88;3.05;;;13.20;96.70;;;;;;5102482;28;20088;-78
2022/09/23 05:32:34;;;;;;;5.85;3.20;;;13.30;96.70;;;;;;5102108;28;20097;-79
2022/09/23 05:35:03;;;;;;;5.43;2.50;;;13.30;96.70;;;;;;5105950;28;20066;-79
2022/09/23 05:37:31;;;;;;;5.00;2.70;;;13.30;96.70;;;;;;5106246;28;20051;-78
2022/09/23 05:40:00;;;;;;;5.43;2.42;;;13.40;96.70;;;;;;5106829;28;20039;-77
2022/09/23 05:42:28;;;;;;;3.05;2.00;;;13.40;96.70;;;;;;5105976;28;20039;-78
2022/09/23 05:44:56;;;;;;;5.18;2.10;;;13.40;96.70;;;;;;5106492;28;20096;-79
2022/09/23 05:47:25;;;;;;;5.32;2.20;;;13.50;96.70;;;;;;5105588;28;20043;-78
2022/09/23 05:49:54;;;;;;;4.03;1.90;;;13.70;96.70;;;;;;5107414;28;20036;-79
2022/09/23 05:52:27;;;;;;;3.58;2.38;;;13.60;96.70;;;;;;5104834;28;20044;-77
2022/09/23 05:54:55;;;;;;;5.72;2.80;;;13.60;96.70;;;;;;5088215;28;20043;-78
2022/09/23 05:57:23;;;;;;;8.73;4.20;;;13.70;96.70;;;;;;5105510;28;20036;-78
2022/09/23 05:59:51;;;;;;;9.95;5.28;;;13.70;96.70;;;;;;5105787;28;20093;-78
2022/09/23 06:02:19;;;;;;;11.80;6.07;;;13.80;96.70;;;;;;5105667;28;20074;-78
2022/09/23 06:04:48;;;;;;;13.50;6.28;;;13.80;96.70;;;;;;5105951;28;20441;-79
2022/09/23 06:07:16;;;;;;;12.32;5.97;;;13.80;96.70;;;;;;5105669;28;20405;-78
2022/09/23 06:09:44;;;;;;;12.02;5.22;;;13.60;96.70;;;;;;5106982;28;20066;-78
2022/09/23 06:12:13;;;;;;;9.75;4.43;;;13.60;96.70;;;;;;5101273;28;20062;-79
2022/09/23 06:14:41;;;;;;;8.15;4.22;;;13.70;96.70;;;;;;5103053;28;20067;-78
2022/09/23 06:17:09;;;;;;;7.00;3.03;;;13.80;96.70;;;;;;5105118;28;20074;-78
2022/09/23 06:19:36;;;;;;;3.58;2.13;;;13.90;96.70;;;;;;5105998;28;20040;-78
2022/09/23 06:22:06;;;;;;;4.13;2.35;;;13.90;96.70;;;;;;5103520;28;20036;-77
2022/09/23 06:24:34;;;;;;;4.47;2.22;;;13.80;96.70;;;;;;5107183;28;20270;-78
2022/09/23 06:27:02;;;;;;;3.42;2.15;;;13.80;96.70;;;;;;5105126;28;20481;-78
2022/09/23 06:29:31;;;;;;;6.15;2.70;;;13.80;96.70;;;;;;5107215;28;20118;-79
2022/09/23 06:32:00;;;;;;;5.28;2.65;;;13.80;96.70;;;;;;5102539;28;20073;-79
2022/09/23 06:34:28;;;;;;;4.63;2.38;;;13.70;96.70;;;;;;5105007;28;20512;-78
2022/09/23 06:36:59;;;;;;;6.38;2.30;;;13.80;96.70;;;;;;5101206;28;20543;-79
2022/09/23 06:39:42;;;;;;;4.45;2.00;;;13.50;96.70;;;;;;5099262;28;20054;-80
2022/09/23 06:42:10;;;;;;;2.92;1.63;;;13.40;96.70;;;;;;5102713;28;20139;-81
2022/09/23 06:44:38;;;;;;;2.30;1.83;;;13.70;96.70;;;;;;5100157;28;20134;-80
2022/09/23 06:47:06;;;;;;;13.02;2.38;;;13.90;96.70;;;;;;5104912;28;20408;-78
2022/09/23 06:49:34;;;;;;;5.10;2.20;;;14.00;96.70;;;;;;5085332;28;20040;-78
2022/09/23 06:52:03;;;;;;;5.03;2.13;;;14.00;96.70;;;;;;5106510;28;20053;-75
2022/09/23 06:54:32;;;;;;;5.13;2.28;;;14.20;96.70;;;;;;5083619;28;20084;-77
2022/09/23 06:57:01;;;;;;;5.95;2.58;;;14.20;96.70;;;;;;5104370;28;20040;-77
2022/09/23 06:59:29;;;;;;;6.07;3.47;;;14.40;96.70;;;;;;5103367;28;20063;-78
2022/09/23 07:01:57;;;;;;;6.13;4.00;;;14.30;96.70;;;;;;5105973;28;20032;-78
2022/09/23 07:04:26;;;;;;;11.88;5.50;;;14.40;96.70;;;;;;5091144;28;20042;-78
2022/09/23 07:06:56;;;;;;;11.35;5.40;;;14.50;96.70;;;;;;5097653;28;20047;-78
2022/09/23 07:09:24;;;;;;;10.40;6.55;;;14.50;96.70;;;;;;5103738;28;20035;-78
2022/09/23 07:11:52;;;;;;;12.43;6.47;;;14.40;96.70;;;;;;5106041;28;20043;-78
2022/09/23 07:14:24;;;;;;;18.85;8.13;;;14.40;96.70;;;;;;5098535;28;20052;-78
2022/09/23 07:16:52;;;;;;;16.23;9.88;;;14.50;96.70;;;;;;5106423;28;20109;-80
2022/09/23 07:19:20;;;;;;;19.70;10.40;;;14.50;96.70;;;;;;5105593;28;20032;-81
2022/09/23 07:21:48;;;;;;;15.38;10.50;;;14.50;96.70;;;;;;5098060;28;20039;-81
2022/09/23 07:24:16;;;;;;;16.88;10.45;;;14.60;96.70;;;;;;5106105;28;20069;-78
2022/09/23 07:26:44;;;;;;;19.95;11.40;;;14.70;96.70;;;;;;5103465;28;20719;-78
2022/09/23 07:29:13;;;;;;;17.98;10.93;;;14.80;96.70;;;;;;5102129;28;20092;-79
2022/09/23 07:31:43;;;;;;;17.92;10.90;;;14.80;96.70;;;;;;5104797;28;20035;-78
2022/09/23 07:34:11;;;;;;;15.82;9.57;;;14.90;96.70;;;;;;5101293;28;20050;-79
2022/09/23 07:36:40;;;;;;;15.48;8.65;;;15.00;96.70;;;;;;5104928;28;20043;-80
2022/09/23 07:39:09;;;;;;;9.48;5.95;;;15.00;96.70;;;;;;5104112;28;20058;-79
2022/09/23 07:41:38;;;;;;;8.63;5.38;;;15.00;96.70;;;;;;5086351;28;20047;-77
2022/09/23 07:44:07;;;;;;;7.38;4.32;;;15.10;96.70;;;;;;5103814;28;20035;-79
2022/09/23 07:46:35;;;;;;;6.47;3.38;;;15.10;96.70;;;;;;5101898;28;20059;-82
2022/09/23 07:49:05;;;;;;;4.75;3.15;;;15.20;96.70;;;;;;5104033;28;20416;-81
2022/09/23 07:51:36;;;;;;;3.90;2.83;;;15.30;96.70;;;;;;5105422;28;20047;-81
2022/09/23 07:54:06;;;;;;;4.63;2.50;;;15.40;96.70;;;;;;5104067;28;20043;-81
2022/09/23 07:56:36;;;;;;;2.92;2.03;;;15.60;96.70;;;;;;5105100;28;20051;-81
2022/09/23 07:59:07;;;;;;;5.93;2.15;;;15.70;96.70;;;;;;5104121;28;20040;-82
2022/09/23 08:01:38;;;;;;;6.68;2.30;;;15.70;96.70;;;;;;5103600;28;20123;-81
2022/09/23 08:04:12;;;;;;;3.58;1.85;;;15.70;96.70;;;;;;5103812;28;20516;-83
2022/09/23 08:06:41;;;;;;;4.07;2.20;;;15.80;96.70;;;;;;5107880;28;20035;-82
2022/09/23 08:09:10;;;;;;;3.03;1.77;;;15.80;96.70;;;;;;5104995;28;20485;-82
2022/09/23 08:11:40;;;;;;;5.53;1.92;;;15.90;96.70;;;;;;5108251;28;20400;-83
2022/09/23 08:14:09;;;;;;;1.70;1.40;;;16.10;96.70;;;;;;5105628;28;20058;-82
2022/09/23 08:16:38;;;;;;;4.82;2.70;;;16.10;96.70;;;;;;5102913;28;20051;-83
2022/09/23 08:19:07;;;;;;;4.45;3.28;;;16.10;96.70;;;;;;5106451;28;20082;-83
2022/09/23 08:21:38;;;;;;;3.72;2.50;;;16.20;96.70;;;;;;5104319;28;20066;-81
2022/09/23 08:24:06;;;;;;;6.43;3.63;;;16.30;96.70;;;;;;5105795;28;20099;-80
2022/09/23 08:26:35;;;;;;;3.50;2.78;;;16.50;96.70;;;;;;5103293;28;20039;-81
2022/09/23 08:29:03;;;;;;;6.65;2.63;;;16.60;96.70;;;;;;5094566;28;20093;-79
2022/09/23 08:31:31;;;;;;;2.75;2.05;;;16.70;96.70;;;;;;5088464;28;20043;-81
2022/09/23 08:34:00;;;;;;;3.97;2.10;;;16.80;96.70;;;;;;5100072;28;20054;-82
2022/09/23 08:36:28;;;;;;;4.10;1.75;;;16.90;96.70;;;;;;5103281;28;20493;-81
2022/09/23 08:38:57;;;;;;;2.53;1.42;;;17.00;96.70;;;;;;5103589;28;20528;-78
2022/09/23 08:41:34;;;;;;;2.45;1.00;;;17.10;96.70;;;;;;5101186;28;20053;-78
2022/09/23 08:44:10;;;;;;;3.38;1.10;;;17.20;96.70;;;;;;5101170;28;20071;-79
2022/09/23 08:46:44;;;;;;;2.38;1.05;;;17.30;96.70;;;;;;5100261;28;20634;-78
2022/09/23 08:49:19;;;;;;;2.72;1.20;;;17.40;96.70;;;;;;5102474;28;20047;-78
2022/09/23 08:51:49;;;;;;;5.78;1.58;;;17.60;96.70;;;;;;5100222;28;20138;-79
2022/09/23 08:54:18;;;;;;;2.70;1.10;;;17.70;96.70;;;;;;5102838;28;20067;-80
2022/09/23 08:56:51;;;;;;;2.75;1.40;;;17.70;96.70;;;;;;5103154;28;20032;-78
2022/09/23 08:59:27;;;;;;;4.28;1.52;;;17.60;96.70;;;;;;5102163;28;20040;-78
2022/09/23 09:01:59;;;;;;;3.90;2.10;;;17.70;96.70;;;;;;5104055;28;20028;-78
2022/09/23 09:04:38;;;;;;;3.03;2.08;;;17.70;96.70;;;;;;5101430;28;20454;-80
2022/09/23 09:07:13;;;;;;;4.13;2.38;;;17.90;96.70;;;;;;5100305;28;20046;-84
2022/09/23 09:10:10;;;;;;;5.65;2.80;;;18.00;96.70;;;;;;5086676;28;20181;-81
2022/09/23 09:12:42;;;;;;;3.15;1.90;;;18.10;96.70;;;;;;5105745;28;20527;-82
2022/09/23 09:15:13;;;;;;;4.10;1.60;;;18.20;96.70;;;;;;5110861;28;20091;-83
2022/09/23 09:17:51;;;;;;;3.03;1.70;;;18.40;96.70;;;;;;5104836;28;20044;-85
2022/09/23 09:20:24;;;;;;;2.60;1.50;;;18.50;96.70;;;;;;5109820;28;20044;-81
2022/09/23 09:22:56;;;;;;;2.85;1.23;;;18.50;96.70;;;;;;5092004;28;20047;-81
2022/09/23 09:25:36;;;;;;;1.20;0.88;;;18.50;96.70;;;;;;5109438;28;20051;-84
2022/09/23 09:28:15;;;;;;;4.65;1.00;;;18.70;96.70;;;;;;5102694;28;20051;-81
2022/09/23 09:30:44;;;;;;;1.38;0.88;;;18.80;96.70;;;;;;5102172;28;20066;-82
2022/09/23 09:33:17;;;;;;;2.40;0.73;;;18.70;96.70;;;;;;5104469;28;20127;-82
2022/09/23 09:36:13;;;;;;;1.52;0.60;;;18.80;96.70;;;;;;5089640;28;20050;-80
2022/09/23 09:38:41;;;;;;;1.80;0.73;;;19.00;96.70;;;;;;5102785;28;20049;-82
2022/09/23 09:41:14;;;;;;;1.85;0.68;;;19.00;96.70;;;;;;5107269;28;20166;-81
2022/09/23 09:43:52;;;;;;;1.95;0.80;;;19.20;96.70;;;;;;5106177;28;20059;-81
2022/09/23 09:46:34;;;;;;;2.30;1.20;;;19.30;96.70;;;;;;5110214;27;20051;-81
2022/09/23 09:49:10;;;;;;;1.60;1.00;;;19.20;96.70;;;;;;5089408;28;20048;-80
2022/09/23 09:51:40;;;;;;;1.58;0.93;;;19.30;96.70;;;;;;5106092;28;20044;-80
2022/09/23 09:54:17;;;;;;;1.38;0.82;;;19.40;96.70;;;;;;5104670;28;20036;-81
2022/09/23 09:56:48;;;;;;;2.28;1.05;;;19.50;96.70;;;;;;5090272;28;20448;-81
2022/09/23 09:59:21;;;;;;;1.75;0.75;;;19.50;96.70;;;;;;5106221;28;20525;-81
2022/09/23 10:02:09;;;;;;;1.63;1.20;;;19.60;96.70;;;;;;5089482;28;20501;-82
2022/09/23 10:04:38;;;;;;;1.23;0.82;;;19.70;96.70;;;;;;5078287;28;20048;-81
2022/09/23 10:07:11;;;;;;;3.22;1.23;;;20.00;96.70;;;;;;5082826;28;20565;-82
2022/09/23 10:09:47;;;;;;;1.35;0.95;;;20.20;96.70;;;;;;5108312;28;20493;-81
2022/09/23 10:12:18;;;;;;;2.00;0.90;;;20.20;96.70;;;;;;5098076;28;20040;-82
2022/09/23 10:14:52;;;;;;;2.13;1.30;;;20.10;96.70;;;;;;5107954;28;20277;-81
2022/09/23 10:17:23;;;;;;;1.83;1.00;;;20.20;96.70;;;;;;5106867;28;20051;-81
2022/09/23 10:19:59;;;;;;;1.48;1.15;;;20.40;96.70;;;;;;5089436;28;20054;-81
2022/09/23 10:22:30;;;;;;;;;;;20.50;96.70;;;;;;5099895;28;20035;-81
2022/09/23 10:25:02;;;;;;;2.75;1.60;;;20.70;96.70;;;;;;5106494;28;19977;-81
2022/09/23 10:27:34;;;;;;;4.88;2.28;;;20.90;96.70;;;;;;5088165;28;20043;-81
2022/09/23 10:30:06;;;;;;;2.50;1.52;;;21.00;96.70;;;;;;5105888;28;20051;-81
2022/09/23 10:32:36;;;;;;;3.08;1.75;;;21.10;96.70;;;;;;5081937;28;20801;-80
2022/09/23 10:35:13;;;;;;;4.95;2.15;;;21.00;96.70;;;;;;5104345;28;20482;-80
2022/09/23 10:37:45;;;;;;;3.55;2.17;;;21.10;96.70;;;;;;5105566;28;20047;-81
2022/09/23 10:49:32;;;;;;;2.08;1.52;;;21.40;96.70;;;;;;5102952;28;20055;-79
2022/09/23 10:52:18;;;;;;;3.60;1.80;;;21.40;96.70;;;;;;5057793;28;20044;-79
2022/09/23 10:54:59;;;;;;;3.08;1.75;;;21.50;96.70;;;;;;5103340;28;20082;-80
2022/09/23 10:57:41;;;;;;;3.05;1.30;;;21.80;96.70;;;;;;5111412;27;20051;-79
2022/09/23 11:00:22;;;;;;;2.42;1.33;;;22.10;96.70;;;;;;5090829;28;20127;-79
2022/09/23 11:03:13;;;;;;;3.78;1.67;;;22.30;96.70;;;;;;5107066;28;20064;-80
2022/09/23 11:05:50;;;;;;;4.38;1.73;;;22.30;96.70;;;;;;5107606;28;20050;-79
2022/09/23 11:08:50;;;;;;;2.90;1.40;;;22.30;96.70;;;;;;5105108;28;20043;-79
2022/09/23 11:11:32;;;;;;;2.47;1.35;;;22.50;96.70;;;;;;5102574;28;20044;-79
2022/09/23 11:14:15;;;;;;;3.67;1.30;;;22.60;96.70;;;;;;5086832;28;20060;-78
2022/09/23 11:16:57;;;;;;;2.33;1.38;;;22.60;96.70;;;;;;5101443;28;20051;-79
2022/09/23 11:19:59;;;;;;;1.63;1.25;;;22.40;96.70;;;;;;5104361;28;20051;-79
2022/09/23 11:22:42;;;;;;;2.45;1.30;;;22.50;96.70;;;;;;5101013;28;20039;-78
2022/09/23 11:25:33;;;;;;;5.22;1.58;;;22.70;96.70;;;;;;5102896;28;20101;-79
2022/09/23 11:28:22;;;;;;;3.25;1.60;;;23.00;96.70;;;;;;5105119;28;20054;-79
2022/09/23 11:30:57;;;;;;;1.92;1.00;;;23.10;96.70;;;;;;5101986;28;20047;-80
2022/09/23 11:33:55;;;;;;;2.55;1.33;;;23.30;96.70;;;;;;5104687;28;20036;-81
2022/09/23 11:36:30;;;;;;;1.77;1.10;;;23.10;96.70;;;;;;5106765;28;20568;-80
2022/09/23 11:39:04;;;;;;;2.63;1.10;;;22.90;96.70;;;;;;5102996;28;20046;-79
2022/09/23 11:41:37;;;;;;;2.00;1.00;;;23.10;95.80;;;;;;5104329;28;20067;-80
2022/09/23 11:44:13;;;;;;;2.55;0.70;;;23.30;94.70;;;;;;5105126;28;20059;-80
2022/09/23 11:46:45;;;;;;;1.08;0.43;;;23.50;91.60;;;;;;5105705;28;20043;-81
2022/09/23 11:49:21;;;;;;;0.93;0.65;;;23.60;89.40;;;;;;5104278;28;20142;-80
2022/09/23 11:52:03;;;;;;;1.33;0.70;;;23.60;90.80;;;;;;5091679;28;20039;-80
2022/09/23 11:54:39;;;;;;;2.92;1.10;;;23.70;89.10;;;;;;5104444;28;20054;-81
2022/09/23 11:57:15;;;;;;;3.07;0.90;;;23.90;88.80;;;;;;5104028;28;20043;-80
2022/09/23 11:59:50;;;;;;;2.40;0.95;;;24.10;90.20;;;;;;5100804;28;20062;-80
2022/09/23 12:02:25;;;;;;;1.63;0.80;;;24.10;89.90;;;;;;5105861;28;20043;-81
2022/09/23 12:05:05;;;;;;;1.42;0.60;;;24.10;89.70;;;;;;5088193;28;20055;-81
2022/09/23 12:07:50;;;;;;;2.38;0.98;;;24.00;90.60;;;;;;5121095;27;20116;-80
2022/09/23 12:10:18;;;;;;;1.17;0.70;;;24.00;89.40;;;;;;5101376;28;20420;-80
2022/09/23 12:12:54;;;;;;;4.18;1.08;;;24.10;89.60;;;;;;5088102;28;20437;-80
2022/09/23 12:15:38;;;;;;;1.70;0.80;;;24.30;90.00;;;;;;5106220;28;20043;-81
2022/09/23 12:18:34;;;;;;;3.47;0.70;;;24.10;89.40;;;;;;5087824;28;20048;-80
2022/09/23 12:21:19;;;;;;;1.03;0.60;;;24.10;88.80;;;;;;5097941;28;20478;-79
2022/09/23 12:24:26;;;;;;;2.15;0.80;;;24.00;89.40;;;;;;5102106;28;20041;-80
2022/09/23 12:27:06;;;;;;;1.40;0.63;;;24.00;88.90;;;;;;5102069;28;20036;-80
2022/09/23 12:29:36;;;;;;;2.05;0.70;;;24.10;89.50;;;;;;5106204;28;20047;-80
2022/09/23 12:32:08;;;;;;;1.13;0.73;;;24.20;89.40;;;;;;5105544;28;20071;-79
2022/09/23 12:34:40;;;;;;;3.65;0.63;;;24.10;88.60;;;;;;5104445;28;20039;-80
2022/09/23 12:37:10;;;;;;;0.93;0.60;;;24.00;88.70;;;;;;5105089;28;20540;-80
2022/09/23 12:39:38;;;;;;;3.03;0.98;;;24.30;88.10;;;;;;5105973;28;20453;-80
2022/09/23 12:42:15;;;;;;;2.08;0.75;;;24.60;87.80;;;;;;5106563;28;20055;-80
2022/09/23 12:44:46;;;;;;;1.90;0.80;;;24.90;87.20;;;;;;5108226;28;20057;-80
2022/09/23 12:47:35;;;;;;;1.20;0.52;;;25.00;87.40;;;;;;5102124;28;20565;-81
2022/09/23 12:50:36;;;;;;;1.40;0.63;;;25.20;87.40;;;;;;5100845;28;20106;-81
2022/09/23 12:53:49;;;;;;;5.07;0.90;;;25.20;87.40;;;;;;5101865;28;20056;-81
2022/09/23 12:56:23;;;;;;;0.68;0.50;;;25.20;88.70;;;;;;5098173;28;20112;-80
2022/09/23 12:59:12;;;;;;;2.70;0.77;;;24.90;87.60;;;;;;5108786;28;20071;-81
2022/09/23 13:01:41;;;;;;;2.42;0.80;;;24.90;88.40;;;;;;5090437;28;20100;-80
2022/09/23 13:07:15;;;;;;;1.70;0.73;;;24.90;88.50;;;;;;5096773;28;20047;-81
2022/09/23 13:09:47;;;;;;;1.70;0.73;;;25.00;88.70;;;;;;5107755;28;20039;-80
2022/09/23 13:12:22;;;;;;;2.40;0.80;;;25.30;88.90;;;;;;5109085;28;20056;-81
2022/09/23 13:14:53;;;;;;;2.28;0.80;;;25.50;88.60;;;;;;5102618;28;20123;-81
2022/09/23 13:17:24;;;;;;;2.70;0.73;;;25.60;88.00;;;;;;5109881;28;20090;-81
2022/09/23 13:20:02;;;;;;;1.38;0.63;;;25.60;87.30;;;;;;5108580;28;20044;-81
2022/09/23 13:22:56;;;;;;;1.67;0.60;;;25.40;86.30;;;;;;5102929;28;20093;-81
2022/09/23 13:25:26;;;;;;;2.20;0.47;;;25.50;87.20;;;;;;5108875;28;20541;-81
2022/09/23 13:28:00;;;;;;;3.80;0.60;;;25.60;87.30;;;;;;5107682;27;20048;-82
2022/09/23 13:30:28;;;;;;;2.92;0.55;;;25.60;87.00;;;;;;5105433;27;20927;-81